sensor_id;sensor_type;location;lat;lon;timestamp;P1;durP1;ratioP1;P2;durP2;ratioP2
3274;SDS011;1649;53.672;10.064;2023-04-24T00:01:23;13.30;;;7.43;;
3274;SDS011;1649;53.672;10.064;2023-04-24T00:03:48;12.37;;;8.77;;
3274;SDS011;1649;53.672;10.064;2023-04-24T00:06:14;10.20;;;7.70;;
3274;SDS011;1649;53.672;10.064;2023-04-24T00:08:41;13.23;;;9.10;;
3274;SDS011;1649;53.672;10.064;2023-04-24T00:11:07;12.50;;;9.00;;
3274;SDS011;1649;53.672;10.064;2023-04-24T00:13:34;10.93;;;8.40;;
3274;SDS011;1649;53.672;10.064;2023-04-24T00:15:59;13.23;;;9.40;;
3274;SDS011;1649;53.672;10.064;2023-04-24T00:18:25;13.07;;;9.20;;
3274;SDS011;1649;53.672;10.064;2023-04-24T00:20:51;12.30;;;8.90;;
3274;SDS011;1649;53.672;10.064;2023-04-24T00:23:16;12.63;;;9.60;;
3274;SDS011;1649;53.672;10.064;2023-04-24T00:25:42;13.63;;;9.60;;
3274;SDS011;1649;53.672;10.064;2023-04-24T00:28:07;13.33;;;9.07;;
3274;SDS011;1649;53.672;10.064;2023-04-24T00:30:33;14.87;;;10.83;;
3274;SDS011;1649;53.672;10.064;2023-04-24T00:32:58;16.90;;;11.10;;
3274;SDS011;1649;53.672;10.064;2023-04-24T00:35:24;13.43;;;9.80;;
3274;SDS011;1649;53.672;10.064;2023-04-24T00:37:49;12.30;;;8.93;;
3274;SDS011;1649;53.672;10.064;2023-04-24T00:40:15;13.70;;;9.90;;
3274;SDS011;1649;53.672;10.064;2023-04-24T00:42:40;14.07;;;10.20;;
3274;SDS011;1649;53.672;10.064;2023-04-24T00:45:06;17.00;;;11.47;;
3274;SDS011;1649;53.672;10.064;2023-04-24T00:47:32;15.00;;;11.10;;
3274;SDS011;1649;53.672;10.064;2023-04-24T00:49:58;12.50;;;8.60;;
3274;SDS011;1649;53.672;10.064;2023-04-24T00:52:29;15.10;;;10.00;;
3274;SDS011;1649;53.672;10.064;2023-04-24T00:54:56;15.93;;;10.80;;
3274;SDS011;1649;53.672;10.064;2023-04-24T00:57:22;14.50;;;10.33;;
3274;SDS011;1649;53.672;10.064;2023-04-24T00:59:48;15.90;;;11.00;;
3274;SDS011;1649;53.672;10.064;2023-04-24T01:02:14;15.27;;;10.60;;
3274;SDS011;1649;53.672;10.064;2023-04-24T01:04:40;14.47;;;10.87;;
3274;SDS011;1649;53.672;10.064;2023-04-24T01:07:06;13.67;;;10.50;;
3274;SDS011;1649;53.672;10.064;2023-04-24T01:09:35;14.13;;;10.53;;
3274;SDS011;1649;53.672;10.064;2023-04-24T01:12:06;13.27;;;10.07;;
3274;SDS011;1649;53.672;10.064;2023-04-24T01:14:32;14.77;;;10.37;;
3274;SDS011;1649;53.672;10.064;2023-04-24T01:16:58;14.83;;;10.90;;
3274;SDS011;1649;53.672;10.064;2023-04-24T01:19:24;14.53;;;10.80;;
3274;SDS011;1649;53.672;10.064;2023-04-24T01:21:50;13.27;;;10.13;;
3274;SDS011;1649;53.672;10.064;2023-04-24T01:24:18;15.57;;;11.30;;
3274;SDS011;1649;53.672;10.064;2023-04-24T01:26:44;14.33;;;10.20;;
3274;SDS011;1649;53.672;10.064;2023-04-24T01:29:10;17.93;;;11.27;;
3274;SDS011;1649;53.672;10.064;2023-04-24T01:31:36;13.77;;;10.33;;
3274;SDS011;1649;53.672;10.064;2023-04-24T01:34:02;16.80;;;11.27;;
3274;SDS011;1649;53.672;10.064;2023-04-24T01:36:28;15.20;;;10.87;;
3274;SDS011;1649;53.672;10.064;2023-04-24T01:38:56;16.10;;;12.10;;
3274;SDS011;1649;53.672;10.064;2023-04-24T01:41:21;12.77;;;9.70;;
3274;SDS011;1649;53.672;10.064;2023-04-24T01:43:48;13.80;;;10.23;;
3274;SDS011;1649;53.672;10.064;2023-04-24T01:46:14;18.70;;;11.20;;
3274;SDS011;1649;53.672;10.064;2023-04-24T01:48:40;14.90;;;10.13;;
3274;SDS011;1649;53.672;10.064;2023-04-24T01:51:06;15.50;;;10.20;;
3274;SDS011;1649;53.672;10.064;2023-04-24T01:53:32;13.63;;;8.90;;
3274;SDS011;1649;53.672;10.064;2023-04-24T01:55:57;12.87;;;9.30;;
3274;SDS011;1649;53.672;10.064;2023-04-24T01:58:23;12.30;;;9.03;;
3274;SDS011;1649;53.672;10.064;2023-04-24T02:00:49;11.70;;;8.33;;
3274;SDS011;1649;53.672;10.064;2023-04-24T02:03:14;12.43;;;8.70;;
3274;SDS011;1649;53.672;10.064;2023-04-24T02:05:40;13.43;;;8.67;;
3274;SDS011;1649;53.672;10.064;2023-04-24T02:08:08;12.03;;;7.90;;
3274;SDS011;1649;53.672;10.064;2023-04-24T02:10:33;11.73;;;7.47;;
3274;SDS011;1649;53.672;10.064;2023-04-24T02:12:59;11.50;;;7.87;;
3274;SDS011;1649;53.672;10.064;2023-04-24T02:15:25;11.60;;;7.80;;
3274;SDS011;1649;53.672;10.064;2023-04-24T02:17:51;9.97;;;6.23;;
3274;SDS011;1649;53.672;10.064;2023-04-24T02:20:16;11.97;;;8.13;;
3274;SDS011;1649;53.672;10.064;2023-04-24T02:22:42;10.67;;;6.10;;
3274;SDS011;1649;53.672;10.064;2023-04-24T02:25:08;10.90;;;6.10;;
3274;SDS011;1649;53.672;10.064;2023-04-24T02:27:33;11.27;;;5.53;;
3274;SDS011;1649;53.672;10.064;2023-04-24T02:29:59;8.17;;;5.43;;
3274;SDS011;1649;53.672;10.064;2023-04-24T02:32:25;9.90;;;5.90;;
3274;SDS011;1649;53.672;10.064;2023-04-24T02:34:51;8.50;;;5.83;;
3274;SDS011;1649;53.672;10.064;2023-04-24T02:37:16;8.40;;;4.97;;
3274;SDS011;1649;53.672;10.064;2023-04-24T02:39:42;8.10;;;5.10;;
3274;SDS011;1649;53.672;10.064;2023-04-24T02:42:07;7.40;;;4.83;;
3274;SDS011;1649;53.672;10.064;2023-04-24T02:44:33;9.33;;;5.50;;
3274;SDS011;1649;53.672;10.064;2023-04-24T02:46:58;9.13;;;5.03;;
3274;SDS011;1649;53.672;10.064;2023-04-24T02:49:24;8.47;;;6.07;;
3274;SDS011;1649;53.672;10.064;2023-04-24T02:51:50;8.27;;;5.90;;
3274;SDS011;1649;53.672;10.064;2023-04-24T02:54:16;9.60;;;6.23;;
3274;SDS011;1649;53.672;10.064;2023-04-24T02:56:41;8.30;;;5.40;;
3274;SDS011;1649;53.672;10.064;2023-04-24T02:59:07;9.43;;;6.00;;
3274;SDS011;1649;53.672;10.064;2023-04-24T03:01:34;8.77;;;6.03;;
3274;SDS011;1649;53.672;10.064;2023-04-24T03:04:00;9.33;;;5.97;;
3274;SDS011;1649;53.672;10.064;2023-04-24T03:06:25;7.90;;;4.83;;
3274;SDS011;1649;53.672;10.064;2023-04-24T03:08:52;9.47;;;5.80;;
3274;SDS011;1649;53.672;10.064;2023-04-24T03:11:17;10.03;;;6.53;;
3274;SDS011;1649;53.672;10.064;2023-04-24T03:13:43;9.50;;;6.20;;
3274;SDS011;1649;53.672;10.064;2023-04-24T03:16:08;8.20;;;6.03;;
3274;SDS011;1649;53.672;10.064;2023-04-24T03:18:34;8.73;;;6.17;;
3274;SDS011;1649;53.672;10.064;2023-04-24T03:21:00;8.50;;;4.83;;
3274;SDS011;1649;53.672;10.064;2023-04-24T03:23:25;8.13;;;5.00;;
3274;SDS011;1649;53.672;10.064;2023-04-24T03:25:51;8.60;;;4.90;;
3274;SDS011;1649;53.672;10.064;2023-04-24T03:28:17;8.70;;;5.40;;
3274;SDS011;1649;53.672;10.064;2023-04-24T03:30:42;8.87;;;4.97;;
3274;SDS011;1649;53.672;10.064;2023-04-24T03:33:08;7.97;;;4.80;;
3274;SDS011;1649;53.672;10.064;2023-04-24T03:35:34;10.70;;;5.07;;
3274;SDS011;1649;53.672;10.064;2023-04-24T03:38:01;7.20;;;4.60;;
3274;SDS011;1649;53.672;10.064;2023-04-24T03:40:26;7.50;;;4.00;;
3274;SDS011;1649;53.672;10.064;2023-04-24T03:42:54;8.63;;;5.07;;
3274;SDS011;1649;53.672;10.064;2023-04-24T03:45:19;8.90;;;5.13;;
3274;SDS011;1649;53.672;10.064;2023-04-24T03:47:45;7.73;;;4.77;;
3274;SDS011;1649;53.672;10.064;2023-04-24T03:50:10;6.33;;;4.50;;
3274;SDS011;1649;53.672;10.064;2023-04-24T03:52:36;6.40;;;4.07;;
3274;SDS011;1649;53.672;10.064;2023-04-24T03:55:01;7.00;;;4.30;;
3274;SDS011;1649;53.672;10.064;2023-04-24T03:57:27;6.60;;;3.70;;
3274;SDS011;1649;53.672;10.064;2023-04-24T03:59:53;7.00;;;4.50;;
3274;SDS011;1649;53.672;10.064;2023-04-24T04:02:18;5.70;;;3.50;;
3274;SDS011;1649;53.672;10.064;2023-04-24T04:04:44;7.60;;;4.50;;
3274;SDS011;1649;53.672;10.064;2023-04-24T04:07:09;8.10;;;4.70;;
3274;SDS011;1649;53.672;10.064;2023-04-24T04:09:36;6.37;;;3.53;;
3274;SDS011;1649;53.672;10.064;2023-04-24T04:12:01;6.67;;;4.37;;
3274;SDS011;1649;53.672;10.064;2023-04-24T04:14:27;8.20;;;4.20;;
3274;SDS011;1649;53.672;10.064;2023-04-24T04:16:52;7.10;;;4.33;;
3274;SDS011;1649;53.672;10.064;2023-04-24T04:19:18;7.37;;;4.50;;
3274;SDS011;1649;53.672;10.064;2023-04-24T04:21:43;5.80;;;3.70;;
3274;SDS011;1649;53.672;10.064;2023-04-24T04:24:10;7.00;;;3.87;;
3274;SDS011;1649;53.672;10.064;2023-04-24T04:26:36;6.27;;;3.87;;
3274;SDS011;1649;53.672;10.064;2023-04-24T04:29:02;6.30;;;3.90;;
3274;SDS011;1649;53.672;10.064;2023-04-24T04:31:29;6.27;;;4.20;;
3274;SDS011;1649;53.672;10.064;2023-04-24T04:33:55;7.33;;;3.80;;
3274;SDS011;1649;53.672;10.064;2023-04-24T04:36:21;5.60;;;3.27;;
3274;SDS011;1649;53.672;10.064;2023-04-24T04:38:46;7.57;;;3.10;;
3274;SDS011;1649;53.672;10.064;2023-04-24T04:41:12;7.50;;;3.23;;
3274;SDS011;1649;53.672;10.064;2023-04-24T04:43:37;6.07;;;3.20;;
3274;SDS011;1649;53.672;10.064;2023-04-24T04:46:04;5.27;;;3.10;;
3274;SDS011;1649;53.672;10.064;2023-04-24T04:48:30;5.20;;;3.20;;
3274;SDS011;1649;53.672;10.064;2023-04-24T04:50:56;8.43;;;3.00;;
3274;SDS011;1649;53.672;10.064;2023-04-24T04:53:22;4.83;;;2.93;;
3274;SDS011;1649;53.672;10.064;2023-04-24T04:55:48;5.83;;;3.60;;
3274;SDS011;1649;53.672;10.064;2023-04-24T04:58:13;5.10;;;3.00;;
3274;SDS011;1649;53.672;10.064;2023-04-24T05:00:39;4.90;;;2.37;;
3274;SDS011;1649;53.672;10.064;2023-04-24T05:03:04;6.10;;;3.50;;
3274;SDS011;1649;53.672;10.064;2023-04-24T05:05:30;5.00;;;3.20;;
3274;SDS011;1649;53.672;10.064;2023-04-24T05:07:55;7.17;;;2.87;;
3274;SDS011;1649;53.672;10.064;2023-04-24T05:10:21;5.83;;;2.97;;
3274;SDS011;1649;53.672;10.064;2023-04-24T05:12:46;5.47;;;2.70;;
3274;SDS011;1649;53.672;10.064;2023-04-24T05:15:12;4.87;;;2.60;;
3274;SDS011;1649;53.672;10.064;2023-04-24T05:17:37;4.60;;;2.60;;
3274;SDS011;1649;53.672;10.064;2023-04-24T05:20:04;4.60;;;2.60;;
3274;SDS011;1649;53.672;10.064;2023-04-24T05:22:31;4.63;;;2.43;;
3274;SDS011;1649;53.672;10.064;2023-04-24T05:24:57;7.23;;;2.30;;
3274;SDS011;1649;53.672;10.064;2023-04-24T05:27:22;5.50;;;2.20;;
3274;SDS011;1649;53.672;10.064;2023-04-24T05:29:48;5.13;;;2.70;;
3274;SDS011;1649;53.672;10.064;2023-04-24T05:32:13;4.47;;;2.40;;
3274;SDS011;1649;53.672;10.064;2023-04-24T05:34:39;4.60;;;2.30;;
3274;SDS011;1649;53.672;10.064;2023-04-24T05:37:04;4.70;;;2.50;;
3274;SDS011;1649;53.672;10.064;2023-04-24T05:39:33;5.10;;;2.77;;
3274;SDS011;1649;53.672;10.064;2023-04-24T05:42:00;8.57;;;2.40;;
3274;SDS011;1649;53.672;10.064;2023-04-24T05:44:26;5.40;;;2.67;;
3274;SDS011;1649;53.672;10.064;2023-04-24T05:46:51;6.27;;;3.00;;
3274;SDS011;1649;53.672;10.064;2023-04-24T05:49:17;5.50;;;2.67;;
3274;SDS011;1649;53.672;10.064;2023-04-24T05:51:42;5.03;;;2.53;;
3274;SDS011;1649;53.672;10.064;2023-04-24T05:54:08;5.30;;;2.90;;
3274;SDS011;1649;53.672;10.064;2023-04-24T05:56:33;4.67;;;2.43;;
3274;SDS011;1649;53.672;10.064;2023-04-24T05:58:59;5.13;;;2.80;;
3274;SDS011;1649;53.672;10.064;2023-04-24T06:01:25;5.00;;;2.50;;
3274;SDS011;1649;53.672;10.064;2023-04-24T06:03:50;7.77;;;3.37;;
3274;SDS011;1649;53.672;10.064;2023-04-24T06:06:16;5.37;;;2.90;;
3274;SDS011;1649;53.672;10.064;2023-04-24T06:08:41;4.97;;;2.73;;
3274;SDS011;1649;53.672;10.064;2023-04-24T06:11:09;6.60;;;3.10;;
3274;SDS011;1649;53.672;10.064;2023-04-24T06:13:34;5.17;;;2.73;;
3274;SDS011;1649;53.672;10.064;2023-04-24T06:16:00;6.10;;;2.33;;
3274;SDS011;1649;53.672;10.064;2023-04-24T06:18:25;5.50;;;2.80;;
3274;SDS011;1649;53.672;10.064;2023-04-24T06:20:51;5.57;;;2.80;;
3274;SDS011;1649;53.672;10.064;2023-04-24T06:23:16;6.77;;;3.13;;
3274;SDS011;1649;53.672;10.064;2023-04-24T06:25:42;7.00;;;3.30;;
3274;SDS011;1649;53.672;10.064;2023-04-24T06:28:07;5.20;;;2.70;;
3274;SDS011;1649;53.672;10.064;2023-04-24T06:30:33;6.00;;;2.37;;
3274;SDS011;1649;53.672;10.064;2023-04-24T06:32:58;5.23;;;3.00;;
3274;SDS011;1649;53.672;10.064;2023-04-24T06:35:24;5.20;;;2.67;;
3274;SDS011;1649;53.672;10.064;2023-04-24T06:37:49;5.77;;;2.70;;
3274;SDS011;1649;53.672;10.064;2023-04-24T06:40:16;6.30;;;2.53;;
3274;SDS011;1649;53.672;10.064;2023-04-24T06:42:43;5.93;;;2.53;;
3274;SDS011;1649;53.672;10.064;2023-04-24T06:45:09;4.90;;;2.43;;
3274;SDS011;1649;53.672;10.064;2023-04-24T06:47:35;5.10;;;2.30;;
3274;SDS011;1649;53.672;10.064;2023-04-24T06:50:01;5.30;;;2.17;;
3274;SDS011;1649;53.672;10.064;2023-04-24T06:52:26;4.77;;;2.20;;
3274;SDS011;1649;53.672;10.064;2023-04-24T06:54:52;6.43;;;2.53;;
3274;SDS011;1649;53.672;10.064;2023-04-24T06:57:17;5.87;;;2.63;;
3274;SDS011;1649;53.672;10.064;2023-04-24T06:59:44;6.57;;;2.10;;
3274;SDS011;1649;53.672;10.064;2023-04-24T07:02:10;6.17;;;2.40;;
3274;SDS011;1649;53.672;10.064;2023-04-24T07:04:35;5.03;;;2.23;;
3274;SDS011;1649;53.672;10.064;2023-04-24T07:07:01;6.20;;;2.40;;
3274;SDS011;1649;53.672;10.064;2023-04-24T07:09:27;4.70;;;2.03;;
3274;SDS011;1649;53.672;10.064;2023-04-24T07:11:53;5.63;;;2.57;;
3274;SDS011;1649;53.672;10.064;2023-04-24T07:14:19;5.00;;;2.77;;
3274;SDS011;1649;53.672;10.064;2023-04-24T07:16:45;6.20;;;2.50;;
3274;SDS011;1649;53.672;10.064;2023-04-24T07:19:11;5.27;;;2.67;;
3274;SDS011;1649;53.672;10.064;2023-04-24T07:21:37;6.83;;;2.93;;
3274;SDS011;1649;53.672;10.064;2023-04-24T07:24:02;10.40;;;3.00;;
3274;SDS011;1649;53.672;10.064;2023-04-24T07:26:29;7.60;;;3.10;;
3274;SDS011;1649;53.672;10.064;2023-04-24T07:28:55;6.17;;;3.40;;
3274;SDS011;1649;53.672;10.064;2023-04-24T07:31:21;5.53;;;3.40;;
3274;SDS011;1649;53.672;10.064;2023-04-24T07:33:46;5.60;;;2.90;;
3274;SDS011;1649;53.672;10.064;2023-04-24T07:36:13;5.30;;;3.00;;
3274;SDS011;1649;53.672;10.064;2023-04-24T07:38:42;7.10;;;3.93;;
3274;SDS011;1649;53.672;10.064;2023-04-24T07:41:07;6.67;;;3.97;;
3274;SDS011;1649;53.672;10.064;2023-04-24T07:43:33;7.40;;;3.33;;
3274;SDS011;1649;53.672;10.064;2023-04-24T07:45:59;7.30;;;4.23;;
3274;SDS011;1649;53.672;10.064;2023-04-24T07:48:24;6.80;;;3.50;;
3274;SDS011;1649;53.672;10.064;2023-04-24T07:50:51;6.30;;;3.80;;
3274;SDS011;1649;53.672;10.064;2023-04-24T07:53:17;7.03;;;4.47;;
3274;SDS011;1649;53.672;10.064;2023-04-24T07:55:42;6.00;;;4.10;;
3274;SDS011;1649;53.672;10.064;2023-04-24T07:58:08;8.10;;;4.47;;
3274;SDS011;1649;53.672;10.064;2023-04-24T08:00:33;6.70;;;4.10;;
3274;SDS011;1649;53.672;10.064;2023-04-24T08:02:59;6.43;;;4.20;;
3274;SDS011;1649;53.672;10.064;2023-04-24T08:05:25;6.30;;;3.90;;
3274;SDS011;1649;53.672;10.064;2023-04-24T08:07:52;7.63;;;4.90;;
3274;SDS011;1649;53.672;10.064;2023-04-24T08:10:17;7.47;;;5.10;;
3274;SDS011;1649;53.672;10.064;2023-04-24T08:12:43;9.03;;;5.07;;
3274;SDS011;1649;53.672;10.064;2023-04-24T08:15:09;9.40;;;5.60;;
3274;SDS011;1649;53.672;10.064;2023-04-24T08:17:34;8.63;;;5.10;;
3274;SDS011;1649;53.672;10.064;2023-04-24T08:20:00;8.80;;;5.60;;
3274;SDS011;1649;53.672;10.064;2023-04-24T08:22:27;8.00;;;5.20;;
3274;SDS011;1649;53.672;10.064;2023-04-24T08:24:53;8.40;;;6.00;;
3274;SDS011;1649;53.672;10.064;2023-04-24T08:27:19;8.70;;;5.77;;
3274;SDS011;1649;53.672;10.064;2023-04-24T08:29:44;7.03;;;4.90;;
3274;SDS011;1649;53.672;10.064;2023-04-24T08:32:10;6.90;;;4.93;;
3274;SDS011;1649;53.672;10.064;2023-04-24T08:34:36;8.50;;;5.57;;
3274;SDS011;1649;53.672;10.064;2023-04-24T08:37:02;8.37;;;5.50;;
3274;SDS011;1649;53.672;10.064;2023-04-24T08:39:27;8.90;;;6.47;;
3274;SDS011;1649;53.672;10.064;2023-04-24T08:41:53;8.10;;;5.80;;
3274;SDS011;1649;53.672;10.064;2023-04-24T08:44:20;9.00;;;6.40;;
3274;SDS011;1649;53.672;10.064;2023-04-24T08:46:46;10.20;;;7.40;;
3274;SDS011;1649;53.672;10.064;2023-04-24T08:49:13;12.50;;;7.23;;
3274;SDS011;1649;53.672;10.064;2023-04-24T08:51:41;9.30;;;6.80;;
3274;SDS011;1649;53.672;10.064;2023-04-24T08:54:07;10.60;;;7.33;;
3274;SDS011;1649;53.672;10.064;2023-04-24T08:56:33;9.30;;;6.80;;
3274;SDS011;1649;53.672;10.064;2023-04-24T08:59:02;11.70;;;7.17;;
3274;SDS011;1649;53.672;10.064;2023-04-24T09:01:29;8.30;;;5.40;;
3274;SDS011;1649;53.672;10.064;2023-04-24T09:03:58;9.50;;;6.83;;
3274;SDS011;1649;53.672;10.064;2023-04-24T09:06:27;9.30;;;6.47;;
3274;SDS011;1649;53.672;10.064;2023-04-24T09:08:53;10.20;;;6.20;;
3274;SDS011;1649;53.672;10.064;2023-04-24T09:11:19;11.00;;;6.57;;
3274;SDS011;1649;53.672;10.064;2023-04-24T09:13:44;10.10;;;6.47;;
3274;SDS011;1649;53.672;10.064;2023-04-24T09:16:11;10.37;;;6.70;;
3274;SDS011;1649;53.672;10.064;2023-04-24T09:18:37;7.13;;;4.20;;
3274;SDS011;1649;53.672;10.064;2023-04-24T09:21:03;11.17;;;7.17;;
3274;SDS011;1649;53.672;10.064;2023-04-24T09:23:32;11.50;;;7.47;;
3274;SDS011;1649;53.672;10.064;2023-04-24T09:25:58;10.03;;;6.60;;
3274;SDS011;1649;53.672;10.064;2023-04-24T09:28:35;11.07;;;7.20;;
3274;SDS011;1649;53.672;10.064;2023-04-24T09:31:06;13.40;;;8.00;;
3274;SDS011;1649;53.672;10.064;2023-04-24T09:33:34;11.93;;;7.63;;
3274;SDS011;1649;53.672;10.064;2023-04-24T09:36:00;11.60;;;8.53;;
3274;SDS011;1649;53.672;10.064;2023-04-24T09:38:36;11.03;;;7.80;;
3274;SDS011;1649;53.672;10.064;2023-04-24T09:41:03;10.33;;;7.20;;
3274;SDS011;1649;53.672;10.064;2023-04-24T09:43:30;11.10;;;7.97;;
3274;SDS011;1649;53.672;10.064;2023-04-24T09:45:57;10.10;;;7.53;;
3274;SDS011;1649;53.672;10.064;2023-04-24T09:48:30;10.93;;;7.50;;
3274;SDS011;1649;53.672;10.064;2023-04-24T09:51:04;13.20;;;7.30;;
3274;SDS011;1649;53.672;10.064;2023-04-24T09:53:32;11.07;;;6.67;;
3274;SDS011;1649;53.672;10.064;2023-04-24T09:56:10;11.73;;;7.37;;
3274;SDS011;1649;53.672;10.064;2023-04-24T09:58:37;12.43;;;7.77;;
3274;SDS011;1649;53.672;10.064;2023-04-24T10:01:04;11.40;;;7.83;;
3274;SDS011;1649;53.672;10.064;2023-04-24T10:03:30;11.30;;;7.10;;
3274;SDS011;1649;53.672;10.064;2023-04-24T10:06:00;10.93;;;7.70;;
3274;SDS011;1649;53.672;10.064;2023-04-24T10:08:26;10.57;;;7.67;;
3274;SDS011;1649;53.672;10.064;2023-04-24T10:10:57;11.20;;;7.50;;
3274;SDS011;1649;53.672;10.064;2023-04-24T10:13:24;14.33;;;8.63;;
3274;SDS011;1649;53.672;10.064;2023-04-24T10:15:50;12.47;;;9.57;;
3274;SDS011;1649;53.672;10.064;2023-04-24T10:18:16;11.60;;;8.23;;
3274;SDS011;1649;53.672;10.064;2023-04-24T10:20:42;12.93;;;8.67;;
3274;SDS011;1649;53.672;10.064;2023-04-24T10:23:08;12.00;;;7.97;;
3274;SDS011;1649;53.672;10.064;2023-04-24T10:25:34;12.20;;;9.00;;
3274;SDS011;1649;53.672;10.064;2023-04-24T10:28:02;14.63;;;9.90;;
3274;SDS011;1649;53.672;10.064;2023-04-24T10:30:28;12.20;;;9.07;;
3274;SDS011;1649;53.672;10.064;2023-04-24T10:32:59;14.70;;;10.50;;
3274;SDS011;1649;53.672;10.064;2023-04-24T10:35:32;16.33;;;10.87;;
3274;SDS011;1649;53.672;10.064;2023-04-24T10:38:03;13.00;;;10.50;;
3274;SDS011;1649;53.672;10.064;2023-04-24T10:40:33;15.07;;;9.40;;
3274;SDS011;1649;53.672;10.064;2023-04-24T10:43:03;13.60;;;10.50;;
3274;SDS011;1649;53.672;10.064;2023-04-24T10:45:34;15.27;;;11.07;;
3274;SDS011;1649;53.672;10.064;2023-04-24T10:48:07;15.17;;;10.90;;
3274;SDS011;1649;53.672;10.064;2023-04-24T10:50:50;16.03;;;10.90;;
3274;SDS011;1649;53.672;10.064;2023-04-24T10:53:18;15.53;;;10.27;;
3274;SDS011;1649;53.672;10.064;2023-04-24T10:55:48;14.20;;;10.63;;
3274;SDS011;1649;53.672;10.064;2023-04-24T10:58:41;17.13;;;11.53;;
3274;SDS011;1649;53.672;10.064;2023-04-24T11:01:29;17.10;;;11.97;;
3274;SDS011;1649;53.672;10.064;2023-04-24T11:03:58;15.67;;;11.27;;
3274;SDS011;1649;53.672;10.064;2023-04-24T11:06:31;16.70;;;11.37;;
3274;SDS011;1649;53.672;10.064;2023-04-24T11:09:09;17.80;;;12.13;;
3274;SDS011;1649;53.672;10.064;2023-04-24T11:11:38;16.63;;;12.13;;
3274;SDS011;1649;53.672;10.064;2023-04-24T11:14:09;16.43;;;11.70;;
3274;SDS011;1649;53.672;10.064;2023-04-24T11:19:09;17.67;;;12.07;;
3274;SDS011;1649;53.672;10.064;2023-04-24T11:21:45;17.73;;;12.17;;
3274;SDS011;1649;53.672;10.064;2023-04-24T11:24:25;17.70;;;12.83;;
3274;SDS011;1649;53.672;10.064;2023-04-24T11:26:58;15.13;;;11.03;;
3274;SDS011;1649;53.672;10.064;2023-04-24T11:29:40;14.77;;;11.13;;
3274;SDS011;1649;53.672;10.064;2023-04-24T11:32:14;14.60;;;7.83;;
3274;SDS011;1649;53.672;10.064;2023-04-24T11:34:40;13.50;;;8.90;;
3274;SDS011;1649;53.672;10.064;2023-04-24T11:37:06;13.30;;;10.87;;
3274;SDS011;1649;53.672;10.064;2023-04-24T11:39:36;14.83;;;11.07;;
3274;SDS011;1649;53.672;10.064;2023-04-24T11:42:02;16.63;;;11.50;;
3274;SDS011;1649;53.672;10.064;2023-04-24T11:44:28;16.63;;;10.70;;
3274;SDS011;1649;53.672;10.064;2023-04-24T11:46:55;14.43;;;10.87;;
3274;SDS011;1649;53.672;10.064;2023-04-24T11:49:21;13.53;;;9.10;;
3274;SDS011;1649;53.672;10.064;2023-04-24T11:51:47;11.43;;;7.70;;
3274;SDS011;1649;53.672;10.064;2023-04-24T11:54:12;13.07;;;9.17;;
3274;SDS011;1649;53.672;10.064;2023-04-24T11:56:38;13.43;;;10.23;;
3274;SDS011;1649;53.672;10.064;2023-04-24T11:59:04;14.50;;;10.27;;
3274;SDS011;1649;53.672;10.064;2023-04-24T12:01:29;15.63;;;11.20;;
3274;SDS011;1649;53.672;10.064;2023-04-24T12:03:59;12.83;;;9.47;;
3274;SDS011;1649;53.672;10.064;2023-04-24T12:06:25;14.83;;;9.93;;
3274;SDS011;1649;53.672;10.064;2023-04-24T12:08:52;13.73;;;9.80;;
3274;SDS011;1649;53.672;10.064;2023-04-24T12:11:17;14.00;;;9.50;;
3274;SDS011;1649;53.672;10.064;2023-04-24T12:13:43;14.30;;;10.57;;
3274;SDS011;1649;53.672;10.064;2023-04-24T12:16:10;15.00;;;10.40;;
3274;SDS011;1649;53.672;10.064;2023-04-24T12:18:41;14.30;;;9.60;;
3274;SDS011;1649;53.672;10.064;2023-04-24T12:21:20;13.60;;;9.90;;
3274;SDS011;1649;53.672;10.064;2023-04-24T12:23:46;13.60;;;9.60;;
3274;SDS011;1649;53.672;10.064;2023-04-24T12:26:15;12.77;;;8.83;;
3274;SDS011;1649;53.672;10.064;2023-04-24T12:28:48;12.83;;;8.73;;
3274;SDS011;1649;53.672;10.064;2023-04-24T12:31:17;12.23;;;9.30;;
3274;SDS011;1649;53.672;10.064;2023-04-24T12:33:46;12.23;;;7.53;;
3274;SDS011;1649;53.672;10.064;2023-04-24T12:36:11;14.17;;;9.90;;
3274;SDS011;1649;53.672;10.064;2023-04-24T12:38:37;12.80;;;9.50;;
3274;SDS011;1649;53.672;10.064;2023-04-24T12:41:09;10.13;;;7.60;;
3274;SDS011;1649;53.672;10.064;2023-04-24T12:43:36;10.97;;;7.97;;
3274;SDS011;1649;53.672;10.064;2023-04-24T12:46:02;12.23;;;9.13;;
3274;SDS011;1649;53.672;10.064;2023-04-24T12:48:28;13.87;;;9.53;;
3274;SDS011;1649;53.672;10.064;2023-04-24T12:50:54;13.20;;;9.37;;
3274;SDS011;1649;53.672;10.064;2023-04-24T12:53:21;12.70;;;9.07;;
3274;SDS011;1649;53.672;10.064;2023-04-24T12:55:47;13.10;;;9.40;;
3274;SDS011;1649;53.672;10.064;2023-04-24T12:58:18;11.93;;;8.77;;
3274;SDS011;1649;53.672;10.064;2023-04-24T13:00:45;13.27;;;9.30;;
3274;SDS011;1649;53.672;10.064;2023-04-24T13:03:11;10.97;;;7.00;;
3274;SDS011;1649;53.672;10.064;2023-04-24T13:05:37;12.00;;;9.00;;
3274;SDS011;1649;53.672;10.064;2023-04-24T13:08:02;12.67;;;9.30;;
3274;SDS011;1649;53.672;10.064;2023-04-24T13:10:28;13.40;;;8.80;;
3274;SDS011;1649;53.672;10.064;2023-04-24T13:12:53;11.93;;;8.10;;
3274;SDS011;1649;53.672;10.064;2023-04-24T13:15:19;11.10;;;8.20;;
3274;SDS011;1649;53.672;10.064;2023-04-24T13:17:45;11.10;;;8.00;;
3274;SDS011;1649;53.672;10.064;2023-04-24T13:20:10;11.37;;;8.50;;
3274;SDS011;1649;53.672;10.064;2023-04-24T13:22:36;14.33;;;8.87;;
3274;SDS011;1649;53.672;10.064;2023-04-24T13:25:02;12.90;;;9.20;;
3274;SDS011;1649;53.672;10.064;2023-04-24T13:27:27;12.27;;;8.60;;
3274;SDS011;1649;53.672;10.064;2023-04-24T13:29:53;12.93;;;8.97;;
3274;SDS011;1649;53.672;10.064;2023-04-24T13:32:18;18.60;;;8.00;;
3274;SDS011;1649;53.672;10.064;2023-04-24T13:34:44;11.50;;;8.17;;
3274;SDS011;1649;53.672;10.064;2023-04-24T13:37:10;13.40;;;8.87;;
3274;SDS011;1649;53.672;10.064;2023-04-24T13:39:35;10.63;;;7.77;;
3274;SDS011;1649;53.672;10.064;2023-04-24T13:42:01;11.70;;;8.30;;
3274;SDS011;1649;53.672;10.064;2023-04-24T13:44:27;13.17;;;8.50;;
3274;SDS011;1649;53.672;10.064;2023-04-24T13:46:53;11.27;;;8.33;;
3274;SDS011;1649;53.672;10.064;2023-04-24T13:49:22;12.43;;;8.37;;
3274;SDS011;1649;53.672;10.064;2023-04-24T13:51:50;11.60;;;8.20;;
3274;SDS011;1649;53.672;10.064;2023-04-24T13:54:16;11.83;;;8.67;;
3274;SDS011;1649;53.672;10.064;2023-04-24T13:56:41;12.60;;;8.33;;
3274;SDS011;1649;53.672;10.064;2023-04-24T13:59:07;12.30;;;8.87;;
3274;SDS011;1649;53.672;10.064;2023-04-24T14:01:33;12.97;;;8.27;;
3274;SDS011;1649;53.672;10.064;2023-04-24T14:03:59;11.70;;;8.57;;
3274;SDS011;1649;53.672;10.064;2023-04-24T14:06:24;11.40;;;7.93;;
3274;SDS011;1649;53.672;10.064;2023-04-24T14:08:51;12.97;;;8.20;;
3274;SDS011;1649;53.672;10.064;2023-04-24T14:11:17;11.70;;;8.77;;
3274;SDS011;1649;53.672;10.064;2023-04-24T14:13:43;11.67;;;7.80;;
3274;SDS011;1649;53.672;10.064;2023-04-24T14:16:09;10.93;;;7.93;;
3274;SDS011;1649;53.672;10.064;2023-04-24T14:18:35;10.77;;;8.63;;
3274;SDS011;1649;53.672;10.064;2023-04-24T14:21:01;11.40;;;8.00;;
3274;SDS011;1649;53.672;10.064;2023-04-24T14:23:27;11.27;;;8.13;;
3274;SDS011;1649;53.672;10.064;2023-04-24T14:25:52;12.03;;;8.60;;
3274;SDS011;1649;53.672;10.064;2023-04-24T14:28:18;13.10;;;9.17;;
3274;SDS011;1649;53.672;10.064;2023-04-24T14:30:45;12.87;;;8.97;;
3274;SDS011;1649;53.672;10.064;2023-04-24T14:33:11;11.90;;;7.97;;
3274;SDS011;1649;53.672;10.064;2023-04-24T14:35:37;11.60;;;8.60;;
3274;SDS011;1649;53.672;10.064;2023-04-24T14:38:03;11.83;;;8.70;;
3274;SDS011;1649;53.672;10.064;2023-04-24T14:40:29;11.20;;;8.00;;
3274;SDS011;1649;53.672;10.064;2023-04-24T14:42:56;11.27;;;7.83;;
3274;SDS011;1649;53.672;10.064;2023-04-24T14:45:22;17.90;;;8.60;;
3274;SDS011;1649;53.672;10.064;2023-04-24T14:47:48;12.27;;;9.70;;
3274;SDS011;1649;53.672;10.064;2023-04-24T14:50:13;14.17;;;9.83;;